createdAt,value
2019-02-27T00:00:04.504Z,0.00
2019-02-27T00:01:02.542Z,0.00
2019-02-27T00:02:02.519Z,0.00
2019-02-27T00:03:02.496Z,0.00
2019-02-27T00:04:03.077Z,0.00
2019-02-27T00:05:02.444Z,0.00
2019-02-27T00:06:02.421Z,0.00
2019-02-27T00:07:02.399Z,0.00
2019-02-27T00:08:02.381Z,0.00
2019-02-27T00:09:02.347Z,0.00
2019-02-27T00:10:05.846Z,0.00
2019-02-27T00:11:02.313Z,0.00
2019-02-27T00:12:02.284Z,0.00
2019-02-27T00:13:02.268Z,0.00
2019-02-27T00:14:02.224Z,0.00
2019-02-27T00:15:04.913Z,0.00
2019-02-27T00:16:02.178Z,0.00
2019-02-27T00:17:02.172Z,0.00
2019-02-27T00:18:02.128Z,0.00
2019-02-27T00:19:02.125Z,0.00
2019-02-27T00:20:05.091Z,0.00
2019-02-27T00:21:02.053Z,0.00
2019-02-27T00:22:02.030Z,0.00
2019-02-27T00:23:02.007Z,0.00
2019-02-27T00:24:01.979Z,0.00
2019-02-27T00:25:03.458Z,0.00
2019-02-27T00:26:01.939Z,0.00
2019-02-27T00:27:01.908Z,0.00
2019-02-27T00:28:01.887Z,0.00
2019-02-27T00:29:01.859Z,0.00
2019-02-27T00:30:04.903Z,0.00
2019-02-27T00:31:02.617Z,0.00
2019-02-27T00:32:01.784Z,0.00
2019-02-27T00:33:01.758Z,0.00
2019-02-27T00:34:01.735Z,0.00
2019-02-27T00:35:06.476Z,0.00
2019-02-27T00:36:01.687Z,0.00
2019-02-27T00:37:01.661Z,0.00
2019-02-27T00:38:01.683Z,0.00
2019-02-27T00:39:01.611Z,0.00
2019-02-27T00:40:05.431Z,0.00
2019-02-27T00:41:01.564Z,0.00
2019-02-27T00:42:01.541Z,0.00
2019-02-27T00:43:01.514Z,0.00
2019-02-27T00:44:02.024Z,0.00
2019-02-27T00:45:01.465Z,0.00
2019-02-27T00:46:01.443Z,0.00
2019-02-27T00:47:01.418Z,0.00
2019-02-27T00:48:01.391Z,0.00
2019-02-27T00:49:01.366Z,0.00
2019-02-27T00:50:05.736Z,0.00
2019-02-27T00:51:01.323Z,0.00
2019-02-27T00:52:01.295Z,0.00
2019-02-27T00:53:01.348Z,0.00
2019-02-27T00:54:01.244Z,0.00
2019-02-27T00:55:04.291Z,0.00
2019-02-27T00:56:01.196Z,0.00
2019-02-27T00:57:01.169Z,0.00
2019-02-27T00:58:01.145Z,0.00
2019-02-27T00:59:01.123Z,0.00
2019-02-27T01:00:01.098Z,0.00
2019-02-27T01:01:01.071Z,0.00
2019-02-27T01:02:01.045Z,0.00
2019-02-27T01:03:01.021Z,0.00
2019-02-27T01:04:02.433Z,0.00
2019-02-27T01:05:00.971Z,0.00
2019-02-27T01:06:00.946Z,0.00
2019-02-27T01:07:00.924Z,0.00
2019-02-27T01:08:00.897Z,0.00
2019-02-27T01:09:00.872Z,0.00
2019-02-27T01:10:00.850Z,0.00
2019-02-27T01:11:00.823Z,0.00
2019-02-27T01:12:00.797Z,0.00
2019-02-27T01:13:00.780Z,0.00
2019-02-27T01:14:03.926Z,0.00
2019-02-27T01:15:00.741Z,0.00
2019-02-27T01:16:00.705Z,0.00
2019-02-27T01:17:00.683Z,0.00
2019-02-27T01:18:00.649Z,0.00
2019-02-27T01:19:02.223Z,0.00
2019-02-27T01:20:00.605Z,0.00
2019-02-27T01:21:00.575Z,0.00
2019-02-27T01:22:00.549Z,0.00
2019-02-27T01:23:00.524Z,0.00
2019-02-27T01:24:01.453Z,0.00
2019-02-27T01:25:00.473Z,0.00
2019-02-27T01:26:00.454Z,0.00
2019-02-27T01:27:04.133Z,0.00
2019-02-27T01:28:01.642Z,0.00
2019-02-27T01:29:00.374Z,0.00
2019-02-27T01:30:00.412Z,0.00
2019-02-27T01:31:00.327Z,0.00
2019-02-27T01:32:00.300Z,0.00
2019-02-27T01:33:03.915Z,0.00
2019-02-27T01:34:00.252Z,0.00
2019-02-27T01:35:00.335Z,0.00
2019-02-27T01:36:00.204Z,0.00
2019-02-27T01:37:00.197Z,0.00
2019-02-27T01:38:00.150Z,0.00
2019-02-27T01:39:00.129Z,0.00
2019-02-27T01:40:00.272Z,0.00
2019-02-27T01:41:00.078Z,0.00
2019-02-27T01:42:00.051Z,0.00
2019-02-27T01:43:00.026Z,0.00
2019-02-27T01:44:00.006Z,0.00
2019-02-27T01:44:59.976Z,0.00
2019-02-27T01:45:59.950Z,0.00
2019-02-27T01:47:02.321Z,0.00
2019-02-27T01:47:59.905Z,0.00
2019-02-27T01:48:59.876Z,0.00
2019-02-27T01:49:59.850Z,0.00
2019-02-27T01:50:59.825Z,0.00
2019-02-27T01:52:02.113Z,0.00
2019-02-27T01:52:59.781Z,0.00
2019-02-27T01:53:59.750Z,0.00
2019-02-27T01:54:59.726Z,0.00
2019-02-27T01:55:59.702Z,0.00
2019-02-27T01:56:59.896Z,0.00
2019-02-27T01:57:59.658Z,0.00
2019-02-27T01:58:59.626Z,0.00
2019-02-27T01:59:59.603Z,0.00
2019-02-27T02:00:59.575Z,0.00
2019-02-27T02:02:01.075Z,0.00
2019-02-27T02:02:59.529Z,0.00
2019-02-27T02:03:59.501Z,0.00
2019-02-27T02:04:59.483Z,0.00
2019-02-27T02:05:59.869Z,0.00
2019-02-27T02:06:59.424Z,0.00
2019-02-27T02:07:59.407Z,0.00
2019-02-27T02:08:59.384Z,0.00
2019-02-27T02:09:59.349Z,0.00
2019-02-27T02:11:01.410Z,0.00
2019-02-27T02:11:59.301Z,0.00
2019-02-27T02:12:59.277Z,0.00
2019-02-27T02:13:59.248Z,0.00
2019-02-27T02:14:59.228Z,0.00
2019-02-27T02:16:00.909Z,0.00
2019-02-27T02:16:59.173Z,0.00
2019-02-27T02:17:59.148Z,0.00
2019-02-27T02:18:59.146Z,0.00
2019-02-27T02:19:59.102Z,0.00
2019-02-27T02:21:01.739Z,0.00
2019-02-27T02:21:59.048Z,0.00
2019-02-27T02:22:59.024Z,0.00
2019-02-27T02:23:58.998Z,0.00
2019-02-27T02:24:59.798Z,0.00
2019-02-27T02:26:01.065Z,0.00
2019-02-27T02:26:58.922Z,0.00
2019-02-27T02:27:58.898Z,0.00
2019-02-27T02:28:58.872Z,0.00
2019-02-27T02:29:58.847Z,0.00
2019-02-27T02:31:04.903Z,0.00
2019-02-27T02:31:58.807Z,0.00
2019-02-27T02:32:58.773Z,0.00
2019-02-27T02:34:05.184Z,0.00
2019-02-27T02:34:58.729Z,0.00
2019-02-27T02:35:58.699Z,0.00
2019-02-27T02:37:02.474Z,0.00
2019-02-27T02:37:58.645Z,0.00
2019-02-27T02:38:58.622Z,0.00
2019-02-27T02:39:58.600Z,0.00
2019-02-27T02:40:58.587Z,0.00
2019-02-27T02:41:58.547Z,0.00
2019-02-27T02:42:59.067Z,0.00
2019-02-27T02:43:58.502Z,0.00
2019-02-27T02:44:58.499Z,0.00
2019-02-27T02:45:58.443Z,0.00
2019-02-27T02:46:58.433Z,0.00
2019-02-27T02:47:58.394Z,0.00
2019-02-27T02:48:58.371Z,0.00
2019-02-27T02:49:58.345Z,0.00
2019-02-27T02:50:58.321Z,0.00
2019-02-27T02:51:58.303Z,0.00
2019-02-27T02:52:58.267Z,0.00
2019-02-27T02:54:01.731Z,0.00
2019-02-27T02:54:58.223Z,0.00
2019-02-27T02:55:58.192Z,0.00
2019-02-27T02:57:00.574Z,0.00
2019-02-27T02:57:58.142Z,0.00
2019-02-27T02:58:58.118Z,0.00
2019-02-27T02:59:59.909Z,0.00
2019-02-27T03:00:58.069Z,0.00
2019-02-27T03:01:58.039Z,0.00
2019-02-27T03:03:00.976Z,0.00
2019-02-27T03:03:57.988Z,0.00
2019-02-27T03:04:57.964Z,0.00
2019-02-27T03:05:59.798Z,0.00
2019-02-27T03:06:57.912Z,0.00
2019-02-27T03:07:57.895Z,0.00
2019-02-27T03:08:57.867Z,0.00
2019-02-27T03:09:57.834Z,0.00
2019-02-27T03:10:57.810Z,0.00
2019-02-27T03:11:57.787Z,0.00
2019-02-27T03:12:57.758Z,0.00
2019-02-27T03:13:57.736Z,0.00
2019-02-27T03:14:57.709Z,0.00
2019-02-27T03:16:04.235Z,0.00
2019-02-27T03:16:57.672Z,0.00
2019-02-27T03:17:57.632Z,0.00
2019-02-27T03:18:57.607Z,0.00
2019-02-27T03:19:57.581Z,0.00
2019-02-27T03:20:57.556Z,0.00
2019-02-27T03:22:03.111Z,0.00
2019-02-27T03:22:57.504Z,0.00
2019-02-27T03:23:57.481Z,0.00
2019-02-27T03:25:03.630Z,0.00
2019-02-27T03:25:58.150Z,0.00
2019-02-27T03:26:57.401Z,0.00
2019-02-27T03:27:57.376Z,0.00
2019-02-27T03:28:57.353Z,0.00
2019-02-27T03:29:57.332Z,0.00
2019-02-27T03:30:57.300Z,0.00
2019-02-27T03:32:00.444Z,0.00
2019-02-27T03:32:57.261Z,0.00
2019-02-27T03:34:05.604Z,0.00
2019-02-27T03:34:57.234Z,0.00
2019-02-27T03:35:59.907Z,0.00
2019-02-27T03:36:57.178Z,0.00
2019-02-27T03:37:57.123Z,0.00
2019-02-27T03:38:59.156Z,0.00
2019-02-27T03:39:57.075Z,0.00
2019-02-27T03:40:57.057Z,0.00
2019-02-27T03:41:59.413Z,0.00
2019-02-27T03:42:57.000Z,0.00
2019-02-27T03:43:56.972Z,0.00
2019-02-27T03:44:57.188Z,0.00
2019-02-27T03:45:56.923Z,0.00
2019-02-27T03:46:56.895Z,0.00
2019-02-27T03:47:56.867Z,0.00
2019-02-27T03:49:03.011Z,0.00
2019-02-27T03:49:56.818Z,0.00
2019-02-27T03:50:56.867Z,0.00
2019-02-27T03:52:00.357Z,0.00
2019-02-27T03:52:56.738Z,0.00
2019-02-27T03:53:56.711Z,0.00
2019-02-27T03:54:58.016Z,0.00
2019-02-27T03:55:56.661Z,0.00
2019-02-27T03:56:56.634Z,0.00
2019-02-27T03:57:56.613Z,0.00
2019-02-27T03:58:56.585Z,0.00
2019-02-27T03:59:56.559Z,0.00
2019-02-27T04:00:56.531Z,0.00
2019-02-27T04:01:56.507Z,0.00
2019-02-27T04:02:56.489Z,0.00
2019-02-27T04:03:56.478Z,0.00
2019-02-27T04:04:56.429Z,0.00
2019-02-27T04:05:56.426Z,0.00
2019-02-27T04:06:57.235Z,0.00
2019-02-27T04:07:56.352Z,0.00
2019-02-27T04:08:56.326Z,0.00
2019-02-27T04:09:56.534Z,0.00
2019-02-27T04:10:56.276Z,0.00
2019-02-27T04:11:56.249Z,0.00
2019-02-27T04:12:56.253Z,0.00
2019-02-27T04:14:03.077Z,0.00
2019-02-27T04:14:56.173Z,0.00
2019-02-27T04:15:56.147Z,0.00
2019-02-27T04:16:56.118Z,0.00
2019-02-27T04:17:56.095Z,0.00
2019-02-27T04:18:56.075Z,0.00
2019-02-27T04:19:56.049Z,0.00
2019-02-27T04:20:56.025Z,0.00
2019-02-27T04:22:00.516Z,0.00
2019-02-27T04:22:55.968Z,0.00
2019-02-27T04:23:55.949Z,0.00
2019-02-27T04:24:56.778Z,0.00
2019-02-27T04:25:55.890Z,0.00
2019-02-27T04:26:56.514Z,0.00
2019-02-27T04:27:56.342Z,0.00
2019-02-27T04:28:55.810Z,0.00
2019-02-27T04:29:55.788Z,0.00
2019-02-27T04:30:55.762Z,0.00
2019-02-27T04:31:55.734Z,0.00
2019-02-27T04:32:55.723Z,0.00
2019-02-27T04:33:59.556Z,0.00
2019-02-27T04:34:55.660Z,0.00
2019-02-27T04:35:55.630Z,0.00
2019-02-27T04:36:55.603Z,0.00
2019-02-27T04:37:55.577Z,0.00
2019-02-27T04:38:55.551Z,0.00
2019-02-27T04:39:55.526Z,0.00
2019-02-27T04:40:55.501Z,0.00
2019-02-27T04:41:55.473Z,0.00
2019-02-27T04:42:56.979Z,0.00
2019-02-27T04:43:55.423Z,0.00
2019-02-27T04:44:55.406Z,0.00
2019-02-27T04:45:55.377Z,0.00
2019-02-27T04:46:55.642Z,0.00
2019-02-27T04:47:55.323Z,0.00
2019-02-27T04:48:55.292Z,0.00
2019-02-27T04:49:55.267Z,0.00
2019-02-27T04:50:55.254Z,0.00
2019-02-27T04:51:55.217Z,0.00
2019-02-27T04:52:57.885Z,0.00
2019-02-27T04:53:55.184Z,0.00
2019-02-27T04:54:55.165Z,0.00
2019-02-27T04:55:55.132Z,0.00
2019-02-27T04:56:57.594Z,0.00
2019-02-27T04:57:55.061Z,0.00
2019-02-27T04:58:55.037Z,0.00
2019-02-27T04:59:55.014Z,0.00
2019-02-27T05:00:58.945Z,0.00
2019-02-27T05:01:54.960Z,0.00
2019-02-27T05:02:54.933Z,0.00
2019-02-27T05:03:54.915Z,0.00
2019-02-27T05:04:54.878Z,0.00
2019-02-27T05:05:54.862Z,0.00
2019-02-27T05:06:54.829Z,0.00
2019-02-27T05:07:54.955Z,0.00
2019-02-27T05:08:54.774Z,0.00
2019-02-27T05:09:54.751Z,0.00
2019-02-27T05:10:54.724Z,0.00
2019-02-27T05:11:54.697Z,0.00
2019-02-27T05:12:54.673Z,0.00
2019-02-27T05:13:54.866Z,0.00
2019-02-27T05:14:54.627Z,0.00
2019-02-27T05:15:54.596Z,0.00
2019-02-27T05:16:54.571Z,0.00
2019-02-27T05:17:55.632Z,0.00
2019-02-27T05:18:54.517Z,0.00
2019-02-27T05:19:54.504Z,0.00
2019-02-27T05:20:54.475Z,0.00
2019-02-27T05:21:54.447Z,0.00
2019-02-27T05:22:54.425Z,0.00
2019-02-27T05:23:54.392Z,0.00
2019-02-27T05:24:54.366Z,0.00
2019-02-27T05:25:54.334Z,0.00
2019-02-27T05:26:54.310Z,0.00
2019-02-27T05:27:54.282Z,0.00
2019-02-27T05:28:54.259Z,0.00
2019-02-27T05:29:54.243Z,0.00
2019-02-27T05:30:54.222Z,0.00
2019-02-27T05:31:54.179Z,0.00
2019-02-27T05:32:54.154Z,0.00
2019-02-27T05:33:54.126Z,0.00
2019-02-27T05:34:54.110Z,0.00
2019-02-27T05:35:57.007Z,0.00
2019-02-27T05:36:54.048Z,0.00
2019-02-27T05:37:54.023Z,0.00
2019-02-27T05:38:53.996Z,0.00
2019-02-27T05:39:53.970Z,0.00
2019-02-27T05:40:53.948Z,0.00
2019-02-27T05:41:53.919Z,0.00
2019-02-27T05:42:53.893Z,0.00
2019-02-27T05:43:53.867Z,0.00
2019-02-27T05:44:55.883Z,0.00
2019-02-27T05:45:53.819Z,0.00
2019-02-27T05:46:53.788Z,0.00
2019-02-27T05:47:53.769Z,0.00
2019-02-27T05:48:54.004Z,0.00
2019-02-27T05:49:53.710Z,0.00
2019-02-27T05:50:53.685Z,0.00
2019-02-27T05:51:53.662Z,0.00
2019-02-27T05:52:53.631Z,0.00
2019-02-27T05:53:56.177Z,0.00
2019-02-27T05:54:53.592Z,0.00
2019-02-27T05:55:53.555Z,0.00
2019-02-27T05:56:53.528Z,0.00
2019-02-27T05:57:53.503Z,0.00
2019-02-27T05:58:55.864Z,0.00
2019-02-27T05:59:53.455Z,0.00
2019-02-27T06:00:53.424Z,0.00
2019-02-27T06:01:53.398Z,0.00
2019-02-27T06:02:53.374Z,0.00
2019-02-27T06:03:53.366Z,0.00
2019-02-27T06:04:53.318Z,0.00
2019-02-27T06:05:53.294Z,0.00
2019-02-27T06:06:53.266Z,4.00
2019-02-27T06:07:53.249Z,4.00
2019-02-27T06:08:53.216Z,0.00
2019-02-27T06:09:53.256Z,0.00
2019-02-27T06:10:55.991Z,4.00
2019-02-27T06:11:53.138Z,4.00
2019-02-27T06:12:53.110Z,4.00
2019-02-27T06:13:53.087Z,4.00
2019-02-27T06:14:55.022Z,4.00
2019-02-27T06:15:53.033Z,4.00
2019-02-27T06:16:53.005Z,4.00
2019-02-27T06:17:52.978Z,8.00
2019-02-27T06:18:56.036Z,4.00
2019-02-27T06:19:52.928Z,8.00
2019-02-27T06:20:52.901Z,8.00
2019-02-27T06:21:56.033Z,8.00
2019-02-27T06:22:53.498Z,12.00
2019-02-27T06:23:52.823Z,8.00
2019-02-27T06:24:52.797Z,12.00
2019-02-27T06:25:59.047Z,12.00
2019-02-27T06:26:52.743Z,12.00
2019-02-27T06:27:52.718Z,16.00
2019-02-27T06:28:52.694Z,12.00
2019-02-27T06:29:56.599Z,16.00
2019-02-27T06:30:52.643Z,20.00
2019-02-27T06:31:52.616Z,20.00
2019-02-27T06:32:52.589Z,20.00
2019-02-27T06:33:52.567Z,20.00
2019-02-27T06:34:52.534Z,24.00
2019-02-27T06:35:52.508Z,20.00
2019-02-27T06:36:52.492Z,24.00
2019-02-27T06:37:52.455Z,24.00
2019-02-27T06:38:52.430Z,28.00
2019-02-27T06:39:54.147Z,28.00
2019-02-27T06:40:52.378Z,28.00
2019-02-27T06:41:52.352Z,32.00
2019-02-27T06:42:53.850Z,28.00
2019-02-27T06:43:52.299Z,32.00
2019-02-27T06:44:52.272Z,32.00
2019-02-27T06:45:54.186Z,36.00
2019-02-27T06:46:53.750Z,32.00
2019-02-27T06:47:52.194Z,36.00
2019-02-27T06:48:52.168Z,40.00
2019-02-27T06:49:52.579Z,36.00
2019-02-27T06:50:52.116Z,40.00
2019-02-27T06:51:52.090Z,40.00
2019-02-27T06:52:52.065Z,40.00
2019-02-27T06:53:52.037Z,40.00
2019-02-27T06:54:52.831Z,44.00
2019-02-27T06:55:51.985Z,44.00
2019-02-27T06:56:51.959Z,44.00
2019-02-27T06:57:51.944Z,44.00
2019-02-27T06:58:51.909Z,48.00
2019-02-27T06:59:51.885Z,48.00
2019-02-27T07:00:51.866Z,48.00
2019-02-27T07:01:51.828Z,48.00
2019-02-27T07:02:55.142Z,52.00
2019-02-27T07:03:51.779Z,52.00
2019-02-27T07:04:51.748Z,52.00
2019-02-27T07:05:51.728Z,52.00
2019-02-27T07:06:55.239Z,56.00
2019-02-27T07:07:51.672Z,56.00
2019-02-27T07:08:51.645Z,56.00
2019-02-27T07:09:51.638Z,56.00
2019-02-27T07:10:51.595Z,60.00
2019-02-27T07:11:51.576Z,60.00
2019-02-27T07:12:54.399Z,60.00
2019-02-27T07:13:51.518Z,56.00
2019-02-27T07:14:51.489Z,60.00
2019-02-27T07:15:51.467Z,60.00
2019-02-27T07:16:51.440Z,60.00
2019-02-27T07:17:51.413Z,60.00
2019-02-27T07:18:51.385Z,64.00
2019-02-27T07:19:51.369Z,64.00
2019-02-27T07:20:51.338Z,64.00
2019-02-27T07:21:51.308Z,64.00
2019-02-27T07:22:51.286Z,68.00
2019-02-27T07:23:51.589Z,64.00
2019-02-27T07:24:51.230Z,68.00
2019-02-27T07:25:51.210Z,72.00
2019-02-27T07:26:51.183Z,68.00
2019-02-27T07:27:51.164Z,72.00
2019-02-27T07:28:51.128Z,68.00
2019-02-27T07:29:51.103Z,72.00
2019-02-27T07:30:51.078Z,72.00
2019-02-27T07:31:52.095Z,72.00
2019-02-27T07:32:51.025Z,76.00
2019-02-27T07:33:50.998Z,72.00
2019-02-27T07:34:50.973Z,76.00
2019-02-27T07:35:50.961Z,76.00
2019-02-27T07:36:50.921Z,80.00
2019-02-27T07:37:50.899Z,76.00
2019-02-27T07:38:50.872Z,80.00
2019-02-27T07:39:50.846Z,80.00
2019-02-27T07:40:50.823Z,80.00
2019-02-27T07:41:50.797Z,84.00
2019-02-27T07:42:50.769Z,80.00
2019-02-27T07:43:50.770Z,84.00
2019-02-27T07:44:50.718Z,84.00
2019-02-27T07:45:50.696Z,88.00
2019-02-27T07:46:50.673Z,92.00
2019-02-27T07:47:50.643Z,96.00
2019-02-27T07:48:50.619Z,96.00
2019-02-27T07:49:50.592Z,96.00
2019-02-27T07:50:50.568Z,96.00
2019-02-27T07:51:50.546Z,96.00
2019-02-27T07:52:52.113Z,92.00
2019-02-27T07:53:51.379Z,96.00
2019-02-27T07:54:50.469Z,96.00
2019-02-27T07:55:50.489Z,100.00
2019-02-27T07:56:50.416Z,104.00
2019-02-27T07:57:50.419Z,100.00
2019-02-27T07:58:50.421Z,100.00
2019-02-27T07:59:50.344Z,104.00
2019-02-27T08:00:50.535Z,104.00
2019-02-27T08:01:50.295Z,104.00
2019-02-27T08:02:50.280Z,104.00
2019-02-27T08:03:50.244Z,104.00
2019-02-27T08:04:51.704Z,108.00
2019-02-27T08:05:50.191Z,108.00
2019-02-27T08:06:50.166Z,108.00
2019-02-27T08:07:50.142Z,108.00
2019-02-27T08:08:50.115Z,104.00
2019-02-27T08:09:50.098Z,108.00
2019-02-27T08:10:50.068Z,112.00
2019-02-27T08:11:50.047Z,108.00
2019-02-27T08:12:50.092Z,108.00
2019-02-27T08:13:50.015Z,112.00
2019-02-27T08:14:49.984Z,112.00
2019-02-27T08:15:49.945Z,116.00
2019-02-27T08:16:51.632Z,116.00
2019-02-27T08:17:50.023Z,120.00
2019-02-27T08:18:49.900Z,120.00
2019-02-27T08:19:49.847Z,124.00
2019-02-27T08:20:52.065Z,120.00
2019-02-27T08:21:49.811Z,124.00
2019-02-27T08:22:51.635Z,128.00
2019-02-27T08:23:49.750Z,128.00
2019-02-27T08:24:49.727Z,128.00
2019-02-27T08:25:49.713Z,132.00
2019-02-27T08:26:51.638Z,136.00
2019-02-27T08:27:49.669Z,136.00
2019-02-27T08:28:49.626Z,136.00
2019-02-27T08:29:49.609Z,136.00
2019-02-27T08:30:49.592Z,140.00
2019-02-27T08:31:49.565Z,140.00
2019-02-27T08:32:49.538Z,140.00
2019-02-27T08:33:49.509Z,140.00
2019-02-27T08:34:49.484Z,144.00
2019-02-27T08:35:49.458Z,140.00
2019-02-27T08:36:49.434Z,140.00
2019-02-27T08:37:49.412Z,140.00
2019-02-27T08:38:49.386Z,140.00
2019-02-27T08:39:49.377Z,140.00
2019-02-27T08:40:49.339Z,136.00
2019-02-27T08:41:49.337Z,136.00
2019-02-27T08:42:49.292Z,140.00
2019-02-27T08:43:49.275Z,136.00
2019-02-27T08:44:49.254Z,140.00
2019-02-27T08:45:49.223Z,136.00
2019-02-27T08:46:49.195Z,136.00
2019-02-27T08:47:49.180Z,136.00
2019-02-27T08:48:50.685Z,140.00
2019-02-27T08:49:49.125Z,140.00
2019-02-27T08:50:49.101Z,144.00
2019-02-27T08:51:49.080Z,144.00
2019-02-27T08:52:51.423Z,144.00
2019-02-27T08:53:49.028Z,148.00
2019-02-27T08:54:49.007Z,148.00
2019-02-27T08:55:48.983Z,148.00
2019-02-27T08:56:48.961Z,148.00
2019-02-27T08:57:49.916Z,152.00
2019-02-27T08:58:48.919Z,152.00
2019-02-27T08:59:48.890Z,152.00
2019-02-27T09:00:48.864Z,152.00
2019-02-27T09:01:55.437Z,152.00
2019-02-27T09:02:48.817Z,156.00
2019-02-27T09:03:48.794Z,156.00
2019-02-27T09:04:48.771Z,156.00
2019-02-27T09:05:51.058Z,160.00
2019-02-27T09:06:48.734Z,160.00
2019-02-27T09:07:48.701Z,160.00
2019-02-27T09:08:48.676Z,160.00
2019-02-27T09:09:51.180Z,156.00
2019-02-27T09:10:48.630Z,160.00
2019-02-27T09:11:48.616Z,160.00
2019-02-27T09:12:49.189Z,160.00
2019-02-27T09:13:48.574Z,168.00
2019-02-27T09:14:48.540Z,168.00
2019-02-27T09:15:48.531Z,168.00
2019-02-27T09:16:48.503Z,172.00
2019-02-27T09:17:48.471Z,176.00
2019-02-27T09:18:48.446Z,180.00
2019-02-27T09:19:48.422Z,180.00
2019-02-27T09:20:53.027Z,180.00
2019-02-27T09:21:48.376Z,184.00
2019-02-27T09:22:48.380Z,188.00
2019-02-27T09:23:48.339Z,192.00
2019-02-27T09:24:48.306Z,192.00
2019-02-27T09:25:48.962Z,200.00
2019-02-27T09:26:48.262Z,204.00
2019-02-27T09:27:48.236Z,212.00
2019-02-27T09:28:48.213Z,216.00
2019-02-27T09:29:49.353Z,216.00
2019-02-27T09:30:48.171Z,220.00
2019-02-27T09:31:51.020Z,228.00
2019-02-27T09:32:48.123Z,232.00
2019-02-27T09:33:48.104Z,232.00
2019-02-27T09:34:48.085Z,236.00
2019-02-27T09:35:48.059Z,240.00
2019-02-27T09:36:49.163Z,244.00
2019-02-27T09:37:48.434Z,252.00
2019-02-27T09:38:47.987Z,256.00
2019-02-27T09:39:47.970Z,264.00
2019-02-27T09:40:47.942Z,276.00
2019-02-27T09:41:47.930Z,280.00
2019-02-27T09:42:50.237Z,292.00
2019-02-27T09:43:47.931Z,300.00
2019-02-27T09:44:47.860Z,304.00
2019-02-27T09:45:47.841Z,316.00
2019-02-27T09:46:49.873Z,328.00
2019-02-27T09:47:47.812Z,348.00
2019-02-27T09:48:47.767Z,364.00
2019-02-27T09:49:47.744Z,384.00
2019-02-27T09:50:48.966Z,400.00
2019-02-27T09:51:47.702Z,412.00
2019-02-27T09:52:47.677Z,428.00
2019-02-27T09:53:47.657Z,440.00
2019-02-27T09:54:47.684Z,448.00
2019-02-27T09:55:47.614Z,456.00
2019-02-27T09:56:47.590Z,464.00
2019-02-27T09:57:47.573Z,484.00
2019-02-27T09:58:47.550Z,504.00
2019-02-27T09:59:47.535Z,524.00
2019-02-27T10:00:47.503Z,556.00
2019-02-27T10:01:47.481Z,580.00
2019-02-27T10:02:47.464Z,616.00
2019-02-27T10:03:47.442Z,652.00
2019-02-27T10:04:47.417Z,680.00
2019-02-27T10:05:47.830Z,712.00
2019-02-27T10:06:47.375Z,740.00
2019-02-27T10:07:48.432Z,768.00
2019-02-27T10:08:47.331Z,800.00
2019-02-27T10:09:51.165Z,836.00
2019-02-27T10:10:47.309Z,868.00
2019-02-27T10:11:47.277Z,896.00
2019-02-27T10:12:47.321Z,924.00
2019-02-27T10:13:47.307Z,948.00
2019-02-27T10:14:47.900Z,968.00
2019-02-27T10:15:47.183Z,984.00
2019-02-27T10:16:47.206Z,992.00
2019-02-27T10:17:47.148Z,992.00
2019-02-27T10:18:47.123Z,992.00
2019-02-27T10:19:47.100Z,996.00
2019-02-27T10:20:47.082Z,988.00
2019-02-27T10:21:47.634Z,988.00
2019-02-27T10:22:47.040Z,988.00
2019-02-27T10:23:47.018Z,1000.00
2019-02-27T10:24:46.997Z,1004.00
2019-02-27T10:25:46.975Z,1016.00
2019-02-27T10:26:46.954Z,1016.00
2019-02-27T10:27:47.388Z,1020.00
2019-02-27T10:28:46.912Z,1028.00
2019-02-27T10:29:47.917Z,1044.00
2019-02-27T10:30:49.721Z,1064.00
2019-02-27T10:31:46.856Z,1076.00
2019-02-27T10:32:46.852Z,1088.00
2019-02-27T10:33:46.818Z,1104.00
2019-02-27T10:34:46.790Z,1120.00
2019-02-27T10:35:46.775Z,1132.00
2019-02-27T10:36:48.732Z,1164.00
2019-02-27T10:37:50.428Z,1176.00
2019-02-27T10:38:46.709Z,1188.00
2019-02-27T10:39:46.696Z,1196.00
2019-02-27T10:40:46.811Z,1200.00
2019-02-27T10:41:49.820Z,1208.00
2019-02-27T10:42:46.633Z,1220.00
2019-02-27T10:43:47.348Z,1228.00
2019-02-27T10:44:46.595Z,1216.00
2019-02-27T10:45:49.325Z,1208.00
2019-02-27T10:46:46.550Z,1232.00
2019-02-27T10:47:46.527Z,1244.00
2019-02-27T10:48:47.539Z,1248.00
2019-02-27T10:49:48.199Z,1256.00
2019-02-27T10:50:46.486Z,1296.00
2019-02-27T10:51:46.453Z,1324.00
2019-02-27T10:52:46.431Z,1376.00
2019-02-27T10:53:46.410Z,1436.00
2019-02-27T10:54:46.391Z,1520.00
2019-02-27T10:55:48.932Z,1612.00
2019-02-27T10:56:46.352Z,1684.00
2019-02-27T10:57:46.339Z,1736.00
2019-02-27T10:58:47.667Z,1748.00
2019-02-27T10:59:46.293Z,1728.00
2019-02-27T11:00:46.423Z,1652.00
2019-02-27T11:01:46.253Z,1612.00
2019-02-27T11:02:47.944Z,1664.00
2019-02-27T11:03:46.215Z,1704.00
2019-02-27T11:04:46.197Z,1720.00
2019-02-27T11:05:46.178Z,1736.00
2019-02-27T11:06:46.161Z,1868.00
2019-02-27T11:07:46.630Z,1932.00
2019-02-27T11:08:46.120Z,1932.00
2019-02-27T11:09:46.108Z,2076.00
2019-02-27T11:10:46.086Z,2224.00
2019-02-27T11:11:46.068Z,2112.00
2019-02-27T11:12:46.047Z,1932.00
2019-02-27T11:13:48.418Z,1888.00
2019-02-27T11:14:46.014Z,2012.00
2019-02-27T11:15:46.000Z,2260.00
2019-02-27T11:16:45.977Z,2256.00
2019-02-27T11:17:45.979Z,2024.00
2019-02-27T11:18:45.964Z,1964.00
2019-02-27T11:19:45.983Z,2084.00
2019-02-27T11:20:45.933Z,2284.00
2019-02-27T11:21:45.896Z,2540.00
2019-02-27T11:22:45.996Z,2764.00
2019-02-27T11:23:45.928Z,2748.00
2019-02-27T11:24:49.174Z,2652.00
2019-02-27T11:25:45.828Z,2796.00
2019-02-27T11:26:45.814Z,2868.00
2019-02-27T11:27:45.801Z,2672.00
2019-02-27T11:28:47.745Z,2428.00
2019-02-27T11:29:45.769Z,2284.00
2019-02-27T11:30:45.751Z,2444.00
2019-02-27T11:31:46.134Z,2680.00
2019-02-27T11:32:45.719Z,2720.00
2019-02-27T11:33:45.704Z,2668.00
2019-02-27T11:34:48.455Z,2664.00
2019-02-27T11:35:45.991Z,2712.00
2019-02-27T11:36:45.659Z,2728.00
2019-02-27T11:37:47.493Z,2708.00
2019-02-27T11:38:45.634Z,2924.00
2019-02-27T11:39:45.616Z,3140.00
2019-02-27T11:40:45.600Z,3200.00
2019-02-27T11:41:46.079Z,3036.00
2019-02-27T11:42:47.206Z,2996.00
2019-02-27T11:43:45.558Z,3284.00
2019-02-27T11:44:49.453Z,3344.00
2019-02-27T11:45:45.530Z,3288.00
2019-02-27T11:46:45.518Z,3244.00
2019-02-27T11:47:48.018Z,3324.00
2019-02-27T11:48:45.496Z,3420.00
2019-02-27T11:49:45.476Z,3388.00
2019-02-27T11:50:45.466Z,3252.00
2019-02-27T11:51:45.450Z,3020.00
2019-02-27T11:52:48.813Z,2864.00
2019-02-27T11:53:45.430Z,2896.00
2019-02-27T11:54:45.416Z,2972.00
2019-02-27T11:55:47.127Z,2868.00
2019-02-27T11:56:45.387Z,2688.00
2019-02-27T11:57:45.374Z,2536.00
2019-02-27T11:58:45.364Z,2388.00
2019-02-27T11:59:47.514Z,2216.00
2019-02-27T12:00:47.203Z,2028.00
2019-02-27T12:01:45.351Z,1888.00
2019-02-27T12:02:45.319Z,2040.00
2019-02-27T12:03:46.029Z,2192.00
2019-02-27T12:04:45.290Z,2088.00
2019-02-27T12:05:45.287Z,1964.00
2019-02-27T12:06:45.273Z,1920.00
2019-02-27T12:07:45.258Z,1872.00
2019-02-27T12:08:45.246Z,1856.00
2019-02-27T12:09:45.241Z,1908.00
2019-02-27T12:10:45.220Z,1876.00
2019-02-27T12:11:48.380Z,1836.00
2019-02-27T12:12:45.194Z,1748.00
2019-02-27T12:13:45.180Z,1568.00
2019-02-27T12:14:45.178Z,1420.00
2019-02-27T12:15:45.157Z,1468.00
2019-02-27T12:16:45.149Z,1632.00
2019-02-27T12:17:46.940Z,1684.00
2019-02-27T12:18:45.119Z,1720.00
2019-02-27T12:19:45.318Z,1712.00
2019-02-27T12:20:45.111Z,1604.00
2019-02-27T12:21:45.084Z,1556.00
2019-02-27T12:22:45.069Z,1472.00
2019-02-27T12:23:45.063Z,1360.00
2019-02-27T12:24:45.042Z,1404.00
2019-02-27T12:25:45.029Z,1428.00
2019-02-27T12:26:45.016Z,1236.00
2019-02-27T12:27:49.214Z,1116.00
2019-02-27T12:28:44.992Z,1080.00
2019-02-27T12:29:44.976Z,1108.00
2019-02-27T12:30:44.962Z,1084.00
2019-02-27T12:31:47.949Z,1096.00
2019-02-27T12:32:44.934Z,1108.00
2019-02-27T12:33:44.926Z,1148.00
2019-02-27T12:34:44.907Z,1156.00
2019-02-27T12:35:45.051Z,1044.00
2019-02-27T12:36:44.888Z,1140.00
2019-02-27T12:37:46.720Z,1212.00
2019-02-27T12:38:44.853Z,1092.00
2019-02-27T12:39:47.219Z,952.00
2019-02-27T12:40:44.822Z,972.00
2019-02-27T12:41:44.809Z,1080.00
2019-02-27T12:42:44.792Z,1144.00
2019-02-27T12:43:44.793Z,1084.00
2019-02-27T12:44:44.766Z,1108.00
2019-02-27T12:45:44.752Z,1164.00
2019-02-27T12:46:44.738Z,1144.00
2019-02-27T12:47:44.723Z,1100.00
2019-02-27T12:48:46.412Z,1116.00
2019-02-27T12:49:44.701Z,1240.00